createdAt,value
2018-07-09T00:01:32.542Z,19.80
2018-07-09T00:04:01.118Z,19.80
2018-07-09T00:06:29.741Z,19.70
2018-07-09T00:08:58.315Z,19.60
2018-07-09T00:11:27.219Z,19.60
2018-07-09T00:13:55.816Z,19.60
2018-07-09T00:16:24.423Z,19.60
2018-07-09T00:18:53.090Z,19.60
2018-07-09T00:21:21.680Z,19.50
2018-07-09T00:26:18.535Z,19.40
2018-07-09T00:28:47.131Z,19.40
2018-07-09T00:31:15.743Z,19.30
2018-07-09T00:33:44.332Z,19.30
2018-07-09T00:36:13.272Z,19.30
2018-07-09T00:38:41.843Z,19.30
2018-07-09T00:41:10.412Z,19.30
2018-07-09T00:43:39.040Z,19.20
2018-07-09T00:46:07.612Z,19.20
2018-07-09T00:48:36.295Z,19.10
2018-07-09T00:51:05.033Z,19.10
2018-07-09T00:53:33.815Z,19.10
2018-07-09T00:56:02.435Z,19.10
2018-07-09T00:58:31.039Z,19.10
2018-07-09T01:00:59.667Z,19.10
2018-07-09T01:03:28.251Z,19.00
2018-07-09T01:05:56.844Z,19.00
2018-07-09T01:08:25.460Z,19.00
2018-07-09T01:11:05.325Z,19.00
2018-07-09T01:13:41.462Z,19.00
2018-07-09T01:16:10.935Z,18.90
2018-07-09T01:18:39.560Z,18.90
2018-07-09T01:21:11.828Z,18.90
2018-07-09T01:23:40.405Z,18.80
2018-07-09T01:26:09.403Z,18.80
2018-07-09T01:28:39.584Z,18.80
2018-07-09T01:31:08.227Z,18.80
2018-07-09T01:33:36.948Z,18.80
2018-07-09T01:36:05.664Z,18.70
2018-07-09T01:38:34.246Z,18.70
2018-07-09T01:41:02.833Z,18.70
2018-07-09T01:43:31.760Z,18.70
2018-07-09T01:46:00.332Z,18.70
2018-07-09T01:48:28.900Z,18.70
2018-07-09T01:50:57.479Z,18.70
2018-07-09T01:53:26.040Z,18.70
2018-07-09T01:55:54.622Z,18.70
2018-07-09T01:58:24.067Z,18.70
2018-07-09T02:00:52.636Z,18.70
2018-07-09T02:03:21.263Z,18.70
2018-07-09T02:05:49.828Z,18.60
2018-07-09T02:08:18.434Z,18.60
2018-07-09T02:10:47.016Z,18.70
2018-07-09T02:13:15.567Z,18.60
2018-07-09T02:15:44.137Z,18.60
2018-07-09T02:18:12.699Z,18.60
2018-07-09T02:20:41.299Z,18.60
2018-07-09T02:23:09.856Z,18.60
2018-07-09T02:25:38.461Z,18.60
2018-07-09T02:28:07.024Z,18.60
2018-07-09T02:30:35.613Z,18.60
2018-07-09T02:33:04.229Z,18.60
2018-07-09T02:35:33.080Z,18.50
2018-07-09T02:38:01.696Z,18.50
2018-07-09T02:40:30.253Z,18.50
2018-07-09T02:42:58.835Z,18.50
2018-07-09T02:45:27.451Z,18.50
2018-07-09T02:47:56.015Z,18.50
2018-07-09T02:50:24.623Z,18.50
2018-07-09T02:52:53.435Z,18.50
2018-07-09T02:55:22.022Z,18.50
2018-07-09T02:57:50.612Z,18.50
2018-07-09T03:00:19.203Z,18.40
2018-07-09T03:02:47.842Z,18.40
2018-07-09T03:05:16.404Z,18.40
2018-07-09T03:07:45.004Z,18.40
2018-07-09T03:10:13.688Z,18.40
2018-07-09T03:12:42.261Z,18.40
2018-07-09T03:15:10.823Z,18.40
2018-07-09T03:17:39.450Z,18.40
2018-07-09T03:20:08.011Z,18.40
2018-07-09T03:22:37.290Z,18.40
2018-07-09T03:25:05.881Z,18.40
2018-07-09T03:27:34.511Z,18.30
2018-07-09T03:30:03.143Z,18.40
2018-07-09T03:32:31.731Z,18.30
2018-07-09T03:35:00.343Z,18.30
2018-07-09T03:37:29.003Z,18.30
2018-07-09T03:39:57.588Z,18.30
2018-07-09T03:42:26.202Z,18.30
2018-07-09T03:44:55.009Z,18.30
2018-07-09T03:47:25.461Z,18.30
2018-07-09T03:49:56.616Z,18.30
2018-07-09T03:52:25.449Z,18.30
2018-07-09T03:54:54.087Z,18.30
2018-07-09T03:57:22.718Z,18.30
2018-07-09T03:59:51.371Z,18.20
2018-07-09T04:02:20.136Z,18.20
2018-07-09T04:04:48.645Z,18.20
2018-07-09T04:07:17.231Z,18.20
2018-07-09T04:09:45.839Z,18.20
2018-07-09T04:12:14.442Z,18.20
2018-07-09T04:14:43.038Z,18.20
2018-07-09T04:17:11.713Z,18.20
2018-07-09T04:19:40.296Z,18.20
2018-07-09T04:22:08.882Z,18.20
2018-07-09T04:24:38.170Z,18.20
2018-07-09T04:27:06.729Z,18.20
2018-07-09T04:29:35.300Z,18.20
2018-07-09T04:32:03.939Z,18.20
2018-07-09T04:34:32.528Z,18.20
2018-07-09T04:37:01.118Z,18.20
2018-07-09T04:39:29.683Z,18.30
2018-07-09T04:41:58.267Z,18.30
2018-07-09T04:44:26.829Z,18.30
2018-07-09T04:46:55.435Z,18.30
2018-07-09T04:49:24.025Z,18.30
2018-07-09T04:51:52.604Z,18.30
2018-07-09T04:54:21.218Z,18.30
2018-07-09T04:56:49.824Z,18.40
2018-07-09T04:59:18.392Z,18.30
2018-07-09T05:01:47.006Z,18.40
2018-07-09T05:04:15.587Z,18.40
2018-07-09T05:06:44.182Z,18.40
2018-07-09T05:09:12.787Z,18.50
2018-07-09T05:11:41.381Z,18.50
2018-07-09T05:14:09.962Z,18.50
2018-07-09T05:16:38.548Z,18.60
2018-07-09T05:19:07.131Z,18.60
2018-07-09T05:21:35.720Z,18.60
2018-07-09T05:24:04.300Z,18.60
2018-07-09T05:26:32.927Z,18.60
2018-07-09T05:29:01.504Z,18.70
2018-07-09T05:31:30.091Z,18.70
2018-07-09T05:33:58.696Z,18.70
2018-07-09T05:36:27.324Z,18.70
2018-07-09T05:38:55.979Z,18.70
2018-07-09T05:41:24.560Z,18.70
2018-07-09T05:43:53.427Z,18.70
2018-07-09T05:46:22.225Z,18.80
2018-07-09T05:48:57.443Z,18.80
2018-07-09T05:51:26.033Z,18.80
2018-07-09T05:53:54.637Z,18.80
2018-07-09T05:56:23.245Z,18.90
2018-07-09T05:58:52.056Z,18.90
2018-07-09T06:01:20.663Z,18.90
2018-07-09T06:03:49.258Z,19.00
2018-07-09T06:06:17.891Z,19.00
2018-07-09T06:08:47.401Z,19.00
2018-07-09T06:11:16.328Z,19.00
2018-07-09T06:13:44.986Z,19.10
2018-07-09T06:16:13.623Z,19.10
2018-07-09T06:18:42.269Z,19.10
2018-07-09T06:21:10.907Z,19.10
2018-07-09T06:23:39.531Z,19.10
2018-07-09T06:26:08.209Z,19.10
2018-07-09T06:28:36.828Z,19.10
2018-07-09T06:31:05.441Z,19.10
2018-07-09T06:33:34.108Z,19.10
2018-07-09T06:36:02.725Z,19.10
2018-07-09T06:38:31.375Z,19.20
2018-07-09T06:41:00.048Z,19.20
2018-07-09T06:43:28.770Z,19.20
2018-07-09T06:45:57.400Z,19.20
2018-07-09T06:48:26.207Z,19.20
2018-07-09T06:50:54.869Z,19.20
2018-07-09T06:53:23.494Z,19.30
2018-07-09T06:55:52.294Z,19.30
2018-07-09T06:58:20.895Z,19.40
2018-07-09T07:00:49.603Z,19.40
2018-07-09T07:03:18.260Z,19.50
2018-07-09T07:05:46.869Z,19.50
2018-07-09T07:08:15.525Z,19.60
2018-07-09T07:10:44.123Z,19.60
2018-07-09T07:13:12.728Z,19.80
2018-07-09T07:15:41.428Z,19.90
2018-07-09T07:18:10.077Z,19.90
2018-07-09T07:20:38.724Z,20.00
2018-07-09T07:23:07.428Z,20.10
2018-07-09T07:25:36.129Z,20.20
2018-07-09T07:28:04.837Z,20.20
2018-07-09T07:30:33.455Z,20.30
2018-07-09T07:33:02.240Z,20.30
2018-07-09T07:35:30.792Z,20.40
2018-07-09T07:37:59.407Z,20.50
2018-07-09T07:40:28.004Z,20.50
2018-07-09T07:42:56.604Z,20.60
2018-07-09T07:45:25.211Z,20.80
2018-07-09T07:47:53.804Z,21.00
2018-07-09T07:50:22.492Z,21.10
2018-07-09T07:52:51.262Z,21.10
2018-07-09T07:55:19.959Z,21.20
2018-07-09T07:57:48.679Z,21.20
2018-07-09T08:00:17.283Z,21.20
2018-07-09T08:02:45.960Z,21.10
2018-07-09T08:05:14.585Z,21.20
2018-07-09T08:07:43.174Z,21.40
2018-07-09T08:10:11.914Z,21.40
2018-07-09T08:15:09.137Z,21.80
2018-07-09T08:17:37.843Z,21.90
2018-07-09T08:20:06.803Z,21.90
2018-07-09T08:22:35.500Z,21.90
2018-07-09T08:25:04.254Z,22.10
2018-07-09T08:27:32.834Z,22.10
2018-07-09T08:30:01.456Z,22.20
2018-07-09T08:32:30.059Z,22.30
2018-07-09T08:34:58.634Z,22.40
2018-07-09T08:37:27.217Z,22.50
2018-07-09T08:39:55.960Z,22.60
2018-07-09T08:42:24.592Z,22.60
2018-07-09T08:44:53.219Z,22.70
2018-07-09T08:47:21.965Z,22.80
2018-07-09T08:49:50.595Z,23.00
2018-07-09T08:52:20.336Z,23.20
2018-07-09T08:54:49.020Z,23.30
2018-07-09T08:57:17.592Z,23.30
2018-07-09T08:59:46.289Z,23.20
2018-07-09T09:02:15.628Z,23.20
2018-07-09T09:04:44.679Z,23.00
2018-07-09T09:07:13.272Z,23.00
2018-07-09T09:09:42.083Z,22.90
2018-07-09T09:12:10.801Z,22.70
2018-07-09T09:14:39.374Z,22.80
2018-07-09T09:17:08.321Z,22.90
2018-07-09T09:19:37.116Z,23.00
2018-07-09T09:22:05.811Z,23.00
2018-07-09T09:24:34.931Z,23.20
2018-07-09T09:27:03.576Z,23.10
2018-07-09T09:29:32.136Z,23.10
2018-07-09T09:32:00.756Z,23.10
2018-07-09T09:34:29.535Z,23.10
2018-07-09T09:36:58.516Z,23.10
2018-07-09T09:39:27.245Z,23.10
2018-07-09T09:41:57.249Z,23.20
2018-07-09T09:44:26.219Z,23.20
2018-07-09T09:46:55.015Z,23.40
2018-07-09T09:49:24.848Z,23.50
2018-07-09T09:51:53.531Z,23.60
2018-07-09T09:54:22.120Z,23.70
2018-07-09T09:56:51.423Z,23.80
2018-07-09T09:59:20.035Z,23.80
2018-07-09T10:01:48.615Z,23.80
2018-07-09T10:04:17.207Z,23.70
2018-07-09T10:06:45.785Z,23.70
2018-07-09T10:09:14.412Z,23.70
2018-07-09T10:11:43.006Z,23.70
2018-07-09T10:14:11.583Z,23.80
2018-07-09T10:16:40.167Z,23.90
2018-07-09T10:21:55.067Z,24.10
2018-07-09T10:24:28.049Z,24.20
2018-07-09T10:26:59.551Z,24.30
2018-07-09T10:29:28.202Z,24.40
2018-07-09T10:31:58.761Z,24.30
2018-07-09T10:34:27.922Z,24.20
2018-07-09T10:36:57.014Z,24.20
2018-07-09T10:39:27.414Z,24.20
2018-07-09T10:42:02.080Z,24.20
2018-07-09T10:44:31.992Z,24.20
2018-07-09T10:47:01.189Z,24.20
2018-07-09T10:49:30.446Z,24.30
2018-07-09T10:51:59.168Z,24.20
2018-07-09T10:54:27.967Z,24.20
2018-07-09T10:56:57.139Z,24.10
2018-07-09T10:59:25.730Z,24.10
2018-07-09T11:01:54.766Z,24.10
2018-07-09T11:04:23.359Z,24.10
2018-07-09T11:06:53.566Z,24.00
2018-07-09T11:09:23.260Z,24.00
2018-07-09T11:11:52.730Z,24.00
2018-07-09T11:14:22.643Z,24.00
2018-07-09T11:16:51.718Z,24.00
2018-07-09T11:19:21.603Z,24.10
2018-07-09T11:21:50.885Z,24.20
2018-07-09T11:24:19.885Z,24.40
2018-07-09T11:26:49.263Z,24.60
2018-07-09T11:29:18.981Z,24.70
2018-07-09T11:31:47.596Z,24.70
2018-07-09T11:34:16.161Z,24.70
2018-07-09T11:36:45.479Z,24.60
2018-07-09T11:39:14.956Z,24.50
2018-07-09T11:41:44.034Z,24.40
2018-07-09T11:44:12.585Z,24.20
2018-07-09T11:46:41.148Z,24.10
2018-07-09T11:49:09.818Z,24.00
2018-07-09T11:51:38.352Z,24.00
2018-07-09T11:54:07.076Z,23.80
2018-07-09T11:56:36.284Z,23.90
2018-07-09T11:59:06.887Z,23.90
2018-07-09T12:01:36.895Z,23.90
2018-07-09T12:04:05.935Z,24.00
2018-07-09T12:06:35.233Z,24.10
2018-07-09T12:09:05.195Z,24.10
2018-07-09T12:11:37.492Z,24.20
2018-07-09T12:14:06.391Z,24.40
2018-07-09T12:16:35.683Z,24.50
2018-07-09T12:19:04.259Z,24.50
2018-07-09T12:21:33.717Z,24.60
2018-07-09T12:24:02.644Z,24.70
2018-07-09T12:26:31.621Z,24.80
2018-07-09T12:29:00.675Z,25.00
2018-07-09T12:31:30.100Z,25.10
2018-07-09T12:33:58.911Z,25.20
2018-07-09T12:36:28.254Z,25.20
2018-07-09T12:38:57.150Z,25.10
2018-07-09T12:41:26.064Z,24.90
2018-07-09T12:43:54.767Z,24.80
2018-07-09T12:46:24.065Z,24.70
2018-07-09T12:48:53.653Z,24.60
2018-07-09T12:53:51.365Z,24.30
2018-07-09T12:56:21.603Z,24.30
2018-07-09T12:58:50.897Z,24.20
2018-07-09T13:01:20.030Z,24.10
2018-07-09T13:03:48.633Z,24.10
2018-07-09T13:06:17.225Z,24.20
2018-07-09T13:08:45.814Z,24.20
2018-07-09T13:11:16.577Z,24.50
2018-07-09T13:13:45.153Z,24.60
2018-07-09T13:16:13.891Z,24.70
2018-07-09T13:18:43.471Z,24.70
2018-07-09T13:21:12.145Z,24.60
2018-07-09T13:23:40.784Z,24.50
2018-07-09T13:26:09.719Z,24.40
2018-07-09T13:28:38.306Z,24.30
2018-07-09T13:31:07.289Z,24.30
2018-07-09T13:33:36.128Z,24.20
2018-07-09T13:36:05.478Z,24.20
2018-07-09T13:38:34.231Z,24.10
2018-07-09T13:41:03.770Z,24.10
2018-07-09T13:43:32.968Z,24.10
2018-07-09T13:46:02.066Z,24.00
2018-07-09T13:48:31.145Z,24.00
2018-07-09T13:50:59.734Z,24.10
2018-07-09T13:53:28.329Z,24.00
2018-07-09T13:55:57.413Z,24.10
2018-07-09T13:58:26.020Z,24.10
2018-07-09T14:00:55.083Z,24.10
2018-07-09T14:03:24.319Z,24.20
2018-07-09T14:05:56.675Z,24.20
2018-07-09T14:08:25.273Z,24.30
2018-07-09T14:10:54.135Z,24.40
2018-07-09T14:13:22.723Z,24.40
2018-07-09T14:15:52.280Z,24.50
2018-07-09T14:19:23.705Z,24.60
2018-07-09T14:21:52.463Z,24.60
2018-07-09T14:24:21.067Z,24.80
2018-07-09T14:26:49.666Z,24.90
2018-07-09T14:29:18.459Z,24.90
2018-07-09T14:31:47.825Z,24.80
2018-07-09T14:34:16.833Z,24.70
2018-07-09T14:36:45.396Z,24.80
2018-07-09T14:39:14.035Z,24.80
2018-07-09T14:41:43.308Z,24.80
2018-07-09T14:44:12.427Z,24.80
2018-07-09T14:49:10.764Z,24.80
2018-07-09T14:51:39.562Z,24.80
2018-07-09T14:56:37.191Z,24.80
2018-07-09T14:59:06.009Z,24.80
2018-07-09T15:01:34.571Z,24.80
2018-07-09T15:04:03.157Z,24.80
2018-07-09T15:06:31.730Z,24.80
2018-07-09T15:09:00.326Z,24.80
2018-07-09T15:11:30.240Z,24.70
2018-07-09T15:14:01.922Z,24.70
2018-07-09T15:16:31.552Z,24.60
2018-07-09T15:19:00.480Z,24.50
2018-07-09T15:21:30.668Z,24.40
2018-07-09T15:23:59.745Z,24.30
2018-07-09T15:26:28.403Z,24.20
2018-07-09T15:28:56.990Z,24.20
2018-07-09T15:31:25.583Z,24.10
2018-07-09T15:33:54.152Z,24.10
2018-07-09T15:36:23.583Z,24.00
2018-07-09T15:38:55.139Z,24.00
2018-07-09T15:41:23.900Z,24.00
2018-07-09T15:44:01.629Z,23.90
2018-07-09T15:46:30.535Z,23.80
2018-07-09T15:48:59.107Z,23.70
2018-07-09T15:51:27.711Z,23.60
2018-07-09T15:54:00.270Z,23.50
2018-07-09T15:56:29.576Z,23.50
2018-07-09T15:58:58.686Z,23.40
2018-07-09T16:01:27.281Z,23.40
2018-07-09T16:03:55.860Z,23.20
2018-07-09T16:06:24.553Z,23.20
2018-07-09T16:08:53.933Z,23.20
2018-07-09T16:11:22.564Z,23.20
2018-07-09T16:16:20.519Z,23.10
2018-07-09T16:18:49.187Z,23.00
2018-07-09T16:21:17.795Z,23.00
2018-07-09T16:23:46.369Z,23.00
2018-07-09T16:26:15.007Z,22.90
2018-07-09T16:28:43.647Z,22.90
2018-07-09T16:31:12.523Z,22.80
2018-07-09T16:33:41.152Z,22.70
2018-07-09T16:36:09.761Z,22.70
2018-07-09T16:38:38.372Z,22.50
2018-07-09T16:41:06.956Z,22.40
2018-07-09T16:43:35.590Z,22.40
2018-07-09T16:46:04.267Z,22.30
2018-07-09T16:48:32.863Z,22.20
2018-07-09T16:53:29.727Z,22.10
2018-07-09T16:55:58.352Z,22.00
2018-07-09T16:58:26.922Z,21.90
2018-07-09T17:00:55.487Z,21.90
2018-07-09T17:03:24.108Z,21.80
2018-07-09T17:05:52.691Z,21.80
2018-07-09T17:08:21.297Z,21.80
2018-07-09T17:10:50.475Z,21.70
2018-07-09T17:13:20.299Z,21.60
2018-07-09T17:15:48.907Z,21.60
2018-07-09T17:18:18.435Z,21.60
2018-07-09T17:20:47.203Z,21.50
2018-07-09T17:25:51.765Z,21.50
2018-07-09T17:28:20.476Z,21.40
2018-07-09T17:30:49.104Z,21.30
2018-07-09T17:35:51.430Z,21.20
2018-07-09T17:38:20.046Z,21.20
2018-07-09T17:40:48.671Z,21.10
2018-07-09T17:43:19.387Z,21.10
2018-07-09T17:45:47.990Z,21.10
2018-07-09T17:50:45.459Z,21.00
2018-07-09T17:53:14.148Z,21.00
2018-07-09T17:55:42.840Z,20.90
2018-07-09T17:58:11.428Z,21.00
2018-07-09T18:00:41.044Z,20.90
2018-07-09T18:03:09.631Z,21.00
2018-07-09T18:05:38.465Z,20.90
2018-07-09T18:08:07.123Z,20.90
2018-07-09T18:13:03.943Z,20.90
2018-07-09T18:15:32.509Z,20.90
2018-07-09T18:18:01.115Z,20.90
2018-07-09T18:20:29.699Z,20.90
2018-07-09T18:22:58.267Z,20.90
2018-07-09T18:25:26.915Z,20.80
2018-07-09T18:27:55.487Z,20.80
2018-07-09T18:30:24.955Z,20.80
2018-07-09T18:32:53.563Z,20.70
2018-07-09T18:35:22.391Z,20.70
2018-07-09T18:37:51.079Z,20.70
2018-07-09T18:40:19.663Z,20.70
2018-07-09T18:42:48.259Z,20.60
2018-07-09T18:45:16.819Z,20.70
2018-07-09T18:47:45.433Z,20.60
2018-07-09T18:50:14.021Z,20.60
2018-07-09T18:52:42.584Z,20.60
2018-07-09T18:55:11.131Z,20.60
2018-07-09T18:57:39.708Z,20.60
2018-07-09T19:00:08.288Z,20.60
2018-07-09T19:02:36.887Z,20.60
2018-07-09T19:05:05.527Z,20.50
2018-07-09T19:07:34.104Z,20.50
2018-07-09T19:10:02.738Z,20.40
2018-07-09T19:12:33.823Z,20.40
2018-07-09T19:15:03.059Z,20.40
2018-07-09T19:18:10.024Z,20.30
2018-07-09T19:21:19.257Z,20.30
2018-07-09T19:23:46.814Z,20.30
2018-07-09T19:26:14.242Z,20.20
2018-07-09T19:28:41.656Z,20.20
2018-07-09T19:31:09.050Z,20.20
2018-07-09T19:33:36.672Z,20.10
2018-07-09T19:36:04.400Z,20.10
2018-07-09T19:38:31.858Z,20.10
2018-07-09T19:40:59.371Z,20.10
2018-07-09T19:43:26.771Z,20.00
2018-07-09T19:45:54.417Z,20.00
2018-07-09T19:48:22.778Z,20.00
2018-07-09T19:50:50.208Z,20.00
2018-07-09T19:53:17.667Z,20.00
2018-07-09T19:55:45.070Z,19.90
2018-07-09T19:58:12.480Z,19.90
2018-07-09T20:00:40.567Z,19.90
2018-07-09T20:03:08.544Z,19.90
2018-07-09T20:05:35.949Z,19.80
2018-07-09T20:08:04.215Z,19.80
2018-07-09T20:10:36.806Z,19.80
2018-07-09T20:13:05.776Z,19.80
2018-07-09T20:15:38.771Z,19.80
2018-07-09T20:18:06.174Z,19.70
2018-07-09T20:20:34.073Z,19.70
2018-07-09T20:23:01.492Z,19.70
2018-07-09T20:25:28.959Z,19.80
2018-07-09T20:27:56.559Z,19.70
2018-07-09T20:30:23.970Z,19.70
2018-07-09T20:32:51.488Z,19.70
2018-07-09T20:35:18.840Z,19.70
2018-07-09T20:37:46.244Z,19.70
2018-07-09T20:40:13.670Z,19.70
2018-07-09T20:42:41.112Z,19.60
2018-07-09T20:45:08.903Z,19.60
2018-07-09T20:47:36.348Z,19.60
2018-07-09T20:50:03.772Z,19.50
2018-07-09T20:52:31.198Z,19.50
2018-07-09T20:54:59.145Z,19.40
2018-07-09T20:57:27.958Z,19.40
2018-07-09T20:59:55.361Z,19.40
2018-07-09T21:02:22.781Z,19.30
2018-07-09T21:04:50.275Z,19.30
2018-07-09T21:07:18.320Z,19.30
2018-07-09T21:09:45.765Z,19.30
2018-07-09T21:12:13.188Z,19.30
2018-07-09T21:17:08.279Z,19.20
2018-07-09T21:19:35.705Z,19.30
2018-07-09T21:22:03.203Z,19.30
2018-07-09T21:24:30.628Z,19.20
2018-07-09T21:26:58.036Z,19.20
2018-07-09T21:29:25.496Z,19.20
2018-07-09T21:31:52.899Z,19.20
2018-07-09T21:34:20.315Z,19.20
2018-07-09T21:36:47.727Z,19.20
2018-07-09T21:39:15.143Z,19.20
2018-07-09T21:41:42.786Z,19.20
2018-07-09T21:44:10.651Z,19.20
2018-07-09T21:46:38.074Z,19.20
2018-07-09T21:49:05.464Z,19.20
2018-07-09T21:51:33.943Z,19.20
2018-07-09T21:54:01.369Z,19.20
2018-07-09T21:56:28.867Z,19.10
2018-07-09T21:58:56.228Z,19.10
2018-07-09T22:01:23.672Z,19.00
2018-07-09T22:03:51.083Z,19.00
2018-07-09T22:06:18.536Z,19.00
2018-07-09T22:08:45.961Z,19.00
2018-07-09T22:11:13.372Z,18.90
2018-07-09T22:13:40.772Z,19.00
2018-07-09T22:16:08.179Z,19.00
2018-07-09T22:18:35.589Z,19.00
2018-07-09T22:21:03.011Z,18.90
2018-07-09T22:23:31.282Z,18.90
2018-07-09T22:25:58.708Z,18.90
2018-07-09T22:28:26.142Z,18.90
2018-07-09T22:30:54.752Z,18.90
2018-07-09T22:33:23.330Z,18.90
2018-07-09T22:35:51.940Z,18.90
2018-07-09T22:38:20.514Z,18.90
2018-07-09T22:40:49.086Z,18.90
2018-07-09T22:43:28.899Z,18.90
2018-07-09T22:45:57.467Z,18.90
2018-07-09T22:48:26.031Z,18.90
2018-07-09T22:50:54.618Z,18.80
2018-07-09T22:53:23.184Z,18.90
2018-07-09T22:56:03.564Z,18.80
2018-07-09T22:58:32.165Z,18.80
2018-07-09T23:01:00.844Z,18.80
2018-07-09T23:03:29.415Z,18.80
2018-07-09T23:05:57.968Z,18.70
2018-07-09T23:08:26.550Z,18.70
2018-07-09T23:12:34.676Z,18.70
2018-07-09T23:17:15.861Z,18.70
2018-07-09T23:22:02.158Z,18.70
2018-07-09T23:24:29.560Z,18.60
2018-07-09T23:26:57.307Z,18.60
2018-07-09T23:29:24.714Z,18.50
2018-07-09T23:31:52.122Z,18.40
2018-07-09T23:34:19.873Z,18.30
2018-07-09T23:36:47.319Z,18.20
2018-07-09T23:39:14.872Z,18.20
2018-07-09T23:41:42.274Z,18.10
2018-07-09T23:44:10.563Z,18.10
2018-07-09T23:46:38.337Z,18.00
2018-07-09T23:49:05.774Z,18.00
2018-07-09T23:51:33.745Z,18.00
2018-07-09T23:54:01.151Z,18.00
2018-07-09T23:59:44.531Z,17.90
